createdAt,value
2016-08-23T00:00:26.086Z,1015.15
2016-08-23T00:01:26.102Z,1015.15
2016-08-23T00:02:26.131Z,1015.15
2016-08-23T00:03:26.156Z,1015.15
2016-08-23T00:04:26.183Z,1015.13
2016-08-23T00:05:26.210Z,1015.16
2016-08-23T00:06:26.245Z,1015.15
2016-08-23T00:07:26.262Z,1015.11
2016-08-23T00:08:26.289Z,1015.15
2016-08-23T00:09:26.317Z,1015.1
2016-08-23T00:10:26.343Z,1015.12
2016-08-23T00:11:26.370Z,1015.14
2016-08-23T00:12:26.426Z,1015.13
2016-08-23T00:13:26.422Z,1015.15
2016-08-23T00:14:26.449Z,1015.15
2016-08-23T00:15:26.475Z,1015.12
2016-08-23T00:16:26.507Z,1015.1
2016-08-23T00:17:26.528Z,1015.13
2016-08-23T00:18:26.557Z,1015.11
2016-08-23T00:19:26.580Z,1015.11
2016-08-23T00:20:26.607Z,1015.07
2016-08-23T00:21:26.631Z,1015.08
2016-08-23T00:22:26.661Z,1015.04
2016-08-23T00:23:26.687Z,1015.05
2016-08-23T00:24:26.712Z,1015.06
2016-08-23T00:25:26.740Z,1015.09
2016-08-23T00:26:26.777Z,1015.04
2016-08-23T00:27:26.791Z,1015.03
2016-08-23T00:28:26.869Z,1015.03
2016-08-23T00:29:26.844Z,1015
2016-08-23T00:30:26.878Z,1015.03
2016-08-23T00:31:26.897Z,1015.01
2016-08-23T00:32:26.946Z,1015.04
2016-08-23T00:33:26.950Z,1015.01
2016-08-23T00:34:26.979Z,1015
2016-08-23T00:35:27.029Z,1014.98
2016-08-23T00:36:27.030Z,1015
2016-08-23T00:37:27.055Z,1015.01
2016-08-23T00:38:27.091Z,1015
2016-08-23T00:39:27.263Z,1015
2016-08-23T00:40:27.135Z,1014.98
2016-08-23T00:41:27.159Z,1014.99
2016-08-23T00:42:27.188Z,1014.98
2016-08-23T00:43:27.217Z,1014.99
2016-08-23T00:44:27.241Z,1014.98
2016-08-23T00:45:27.267Z,1015.01
2016-08-23T00:46:27.295Z,1015.01
2016-08-23T00:47:27.319Z,1015
2016-08-23T00:48:27.354Z,1015.03
2016-08-23T00:49:27.372Z,1015
2016-08-23T00:50:27.398Z,1014.98
2016-08-23T00:51:27.424Z,1015
2016-08-23T00:52:27.536Z,1015.02
2016-08-23T00:53:27.478Z,1015.02
2016-08-23T00:54:27.503Z,1015.03
2016-08-23T00:55:27.530Z,1015.06
2016-08-23T00:56:27.557Z,1015.05
2016-08-23T00:57:27.582Z,1015.03
2016-08-23T00:58:27.607Z,1015.05
2016-08-23T00:59:27.634Z,1015.07
2016-08-23T01:00:27.661Z,1015.03
2016-08-23T01:01:27.688Z,1015.03
2016-08-23T01:02:27.713Z,1015.04
2016-08-23T01:03:27.739Z,1015.04
2016-08-23T01:04:27.767Z,1015.01
2016-08-23T01:05:27.793Z,1015.05
2016-08-23T01:06:27.819Z,1015.04
2016-08-23T01:07:27.845Z,1015.02
2016-08-23T01:08:27.871Z,1015.05
2016-08-23T01:09:27.897Z,1015.04
2016-08-23T01:10:27.924Z,1015.04
2016-08-23T01:11:27.950Z,1015.03
2016-08-23T01:12:27.978Z,1015.03
2016-08-23T01:13:28.002Z,1015.05
2016-08-23T01:14:28.029Z,1015
2016-08-23T01:15:28.056Z,1014.97
2016-08-23T01:16:28.083Z,1014.99
2016-08-23T01:17:28.107Z,1015.03
2016-08-23T01:18:28.134Z,1015.01
2016-08-23T01:19:28.160Z,1015.04
2016-08-23T01:20:28.185Z,1015
2016-08-23T01:21:28.212Z,1015
2016-08-23T01:22:28.239Z,1014.96
2016-08-23T01:23:28.263Z,1015
2016-08-23T01:24:28.291Z,1014.99
2016-08-23T01:25:28.316Z,1014.99
2016-08-23T01:26:28.343Z,1014.97
2016-08-23T01:27:28.369Z,1014.98
2016-08-23T01:28:28.396Z,1015
2016-08-23T01:29:28.506Z,1015
2016-08-23T01:30:28.447Z,1014.99
2016-08-23T01:31:28.474Z,1015
2016-08-23T01:32:28.499Z,1014.99
2016-08-23T01:33:28.525Z,1015.02
2016-08-23T01:34:28.551Z,1015.01
2016-08-23T01:35:28.579Z,1015.05
2016-08-23T01:36:28.603Z,1015.03
2016-08-23T01:37:28.632Z,1015.03
2016-08-23T01:38:28.656Z,1015.06
2016-08-23T01:39:28.682Z,1015.06
2016-08-23T01:40:28.709Z,1015.07
2016-08-23T01:41:28.733Z,1015.06
2016-08-23T01:42:28.767Z,1015.08
2016-08-23T01:43:28.787Z,1015.08
2016-08-23T01:44:28.814Z,1015.07
2016-08-23T01:45:28.839Z,1015.1
2016-08-23T01:46:28.864Z,1015.07
2016-08-23T01:47:28.890Z,1015.08
2016-08-23T01:48:28.917Z,1015.07
2016-08-23T01:49:29.962Z,1015.07
2016-08-23T01:50:28.968Z,1015
2016-08-23T01:51:28.996Z,1015.01
2016-08-23T01:52:29.021Z,1015.05
2016-08-23T01:53:29.047Z,1015.05
2016-08-23T01:54:29.073Z,1015.02
2016-08-23T01:55:29.099Z,1015.04
2016-08-23T01:56:29.124Z,1015.02
2016-08-23T01:58:29.177Z,1015
2016-08-23T01:59:29.203Z,1015.02
2016-08-23T02:00:29.227Z,1015.02
2016-08-23T02:01:29.254Z,1014.98
2016-08-23T02:02:29.280Z,1014.98
2016-08-23T02:03:29.377Z,1014.98
2016-08-23T02:04:29.332Z,1014.96
2016-08-23T02:05:29.358Z,1015
2016-08-23T02:06:29.386Z,1014.95
2016-08-23T02:07:29.421Z,1014.95
2016-08-23T02:08:29.437Z,1014.97
2016-08-23T02:09:29.468Z,1014.94
2016-08-23T02:10:29.489Z,1014.97
2016-08-23T02:11:29.515Z,1014.95
2016-08-23T02:12:29.558Z,1014.95
2016-08-23T02:13:29.566Z,1014.95
2016-08-23T02:14:29.592Z,1014.97
2016-08-23T02:15:29.618Z,1014.93
2016-08-23T02:16:29.644Z,1014.94
2016-08-23T02:17:29.671Z,1014.96
2016-08-23T02:18:29.702Z,1014.98
2016-08-23T02:19:29.722Z,1014.96
2016-08-23T02:20:29.749Z,1014.96
2016-08-23T02:21:29.773Z,1014.97
2016-08-23T02:22:29.800Z,1014.95
2016-08-23T02:23:29.825Z,1014.94
2016-08-23T02:24:29.851Z,1014.94
2016-08-23T02:25:29.877Z,1014.93
2016-08-23T02:26:29.901Z,1014.92
2016-08-23T02:27:29.928Z,1014.96
2016-08-23T02:28:30.005Z,1014.94
2016-08-23T02:29:29.981Z,1014.94
2016-08-23T02:30:30.004Z,1014.95
2016-08-23T02:31:30.032Z,1014.96
2016-08-23T02:32:30.058Z,1014.99
2016-08-23T02:33:30.083Z,1014.97
2016-08-23T02:34:30.109Z,1014.97
2016-08-23T02:35:30.136Z,1015.02
2016-08-23T02:36:30.161Z,1014.96
2016-08-23T02:37:30.188Z,1014.97
2016-08-23T02:38:30.213Z,1014.98
2016-08-23T02:39:30.238Z,1015.02
2016-08-23T02:40:30.264Z,1014.98
2016-08-23T02:41:30.290Z,1015.02
2016-08-23T02:42:30.319Z,1014.99
2016-08-23T02:43:30.342Z,1015.03
2016-08-23T02:44:30.368Z,1015
2016-08-23T02:45:30.401Z,1015.02
2016-08-23T02:46:30.420Z,1015
2016-08-23T02:47:30.445Z,1015.03
2016-08-23T02:48:30.472Z,1015.01
2016-08-23T02:49:30.498Z,1014.96
2016-08-23T02:50:30.523Z,1015.01
2016-08-23T02:51:30.555Z,1015.01
2016-08-23T02:52:30.575Z,1014.99
2016-08-23T02:53:30.602Z,1014.98
2016-08-23T02:54:30.626Z,1015
2016-08-23T02:55:30.657Z,1014.96
2016-08-23T02:56:30.678Z,1014.97
2016-08-23T02:57:30.704Z,1014.97
2016-08-23T02:58:30.729Z,1014.96
2016-08-23T02:59:30.755Z,1014.98
2016-08-23T03:00:30.782Z,1014.99
2016-08-23T03:01:30.807Z,1014.94
2016-08-23T03:02:30.832Z,1014.94
2016-08-23T03:03:30.859Z,1014.93
2016-08-23T03:04:30.884Z,1014.93
2016-08-23T03:05:30.908Z,1014.96
2016-08-23T03:06:30.935Z,1014.94
2016-08-23T03:07:30.961Z,1014.94
2016-08-23T03:08:30.986Z,1014.89
2016-08-23T03:09:31.012Z,1014.91
2016-08-23T03:10:31.039Z,1014.87
2016-08-23T03:11:31.063Z,1014.84
2016-08-23T03:12:31.091Z,1014.85
2016-08-23T03:13:31.116Z,1014.87
2016-08-23T03:14:31.139Z,1014.86
2016-08-23T03:15:31.166Z,1014.84
2016-08-23T03:16:31.193Z,1014.83
2016-08-23T03:17:31.216Z,1014.82
2016-08-23T03:18:31.242Z,1014.86
2016-08-23T03:19:31.269Z,1014.85
2016-08-23T03:20:31.294Z,1014.82
2016-08-23T03:21:31.320Z,1014.88
2016-08-23T03:22:31.346Z,1014.87
2016-08-23T03:23:31.372Z,1014.9
2016-08-23T03:24:31.398Z,1014.87
2016-08-23T03:25:31.427Z,1014.87
2016-08-23T03:26:31.449Z,1014.92
2016-08-23T03:27:31.474Z,1014.87
2016-08-23T03:28:31.549Z,1014.87
2016-08-23T03:29:31.526Z,1014.88
2016-08-23T03:30:31.550Z,1014.9
2016-08-23T03:31:31.578Z,1014.89
2016-08-23T03:32:31.601Z,1014.85
2016-08-23T03:33:31.628Z,1014.86
2016-08-23T03:34:31.656Z,1014.86
2016-08-23T03:35:31.682Z,1014.86
2016-08-23T03:36:31.702Z,1014.87
2016-08-23T03:37:31.730Z,1014.83
2016-08-23T03:38:31.756Z,1014.85
2016-08-23T03:39:31.780Z,1014.85
2016-08-23T03:40:31.808Z,1014.9
2016-08-23T03:41:31.834Z,1014.92
2016-08-23T03:42:31.858Z,1014.94
2016-08-23T03:43:31.884Z,1014.93
2016-08-23T03:44:31.909Z,1014.92
2016-08-23T03:45:31.935Z,1014.89
2016-08-23T03:46:31.960Z,1014.91
2016-08-23T03:47:31.987Z,1014.93
2016-08-23T03:48:32.010Z,1014.91
2016-08-23T03:49:32.035Z,1014.92
2016-08-23T03:50:32.061Z,1014.95
2016-08-23T03:51:32.088Z,1014.96
2016-08-23T03:52:32.113Z,1014.97
2016-08-23T03:53:32.138Z,1014.95
2016-08-23T03:54:32.164Z,1014.97
2016-08-23T03:55:32.190Z,1014.95
2016-08-23T03:56:32.215Z,1014.97
2016-08-23T03:57:32.239Z,1014.96
2016-08-23T03:58:32.266Z,1014.96
2016-08-23T03:59:32.291Z,1014.97
2016-08-23T04:00:32.316Z,1014.96
2016-08-23T04:01:32.340Z,1014.96
2016-08-23T04:02:32.368Z,1014.97
2016-08-23T04:03:32.392Z,1014.99
2016-08-23T04:04:32.417Z,1015.01
2016-08-23T04:05:32.443Z,1014.98
2016-08-23T04:06:32.468Z,1014.99
2016-08-23T04:07:32.493Z,1014.99
2016-08-23T04:08:32.518Z,1014.94
2016-08-23T04:09:32.545Z,1014.93
2016-08-23T04:10:32.570Z,1014.91
2016-08-23T04:11:32.594Z,1014.93
2016-08-23T04:12:32.619Z,1014.91
2016-08-23T04:13:32.657Z,1014.96
2016-08-23T04:14:32.671Z,1014.92
2016-08-23T04:15:32.696Z,1014.97
2016-08-23T04:16:32.971Z,1015.01
2016-08-23T04:17:32.748Z,1014.94
2016-08-23T04:18:32.774Z,1015.02
2016-08-23T04:19:32.798Z,1015.03
2016-08-23T04:20:32.864Z,1015.05
2016-08-23T04:21:32.848Z,1015.06
2016-08-23T04:22:32.873Z,1015.03
2016-08-23T04:23:32.910Z,1015.03
2016-08-23T04:24:32.930Z,1015.02
2016-08-23T04:25:32.950Z,1015.04
2016-08-23T04:26:32.974Z,1015.02
2016-08-23T04:27:33.000Z,1015.04
2016-08-23T04:28:33.124Z,1015.03
2016-08-23T04:29:33.049Z,1015.02
2016-08-23T04:30:33.076Z,1015.03
2016-08-23T04:31:33.099Z,1015
2016-08-23T04:32:33.126Z,1014.98
2016-08-23T04:33:33.151Z,1015.05
2016-08-23T04:34:33.175Z,1015.02
2016-08-23T04:35:33.201Z,1015.04
2016-08-23T04:36:33.226Z,1015.01
2016-08-23T04:37:33.251Z,1015.03
2016-08-23T04:38:33.275Z,1015.04
2016-08-23T04:39:33.300Z,1015.06
2016-08-23T04:40:33.326Z,1015.06
2016-08-23T04:41:33.392Z,1015.06
2016-08-23T04:42:33.376Z,1015.07
2016-08-23T04:43:33.401Z,1015.13
2016-08-23T04:44:33.425Z,1015.1
2016-08-23T04:45:33.451Z,1015.15
2016-08-23T04:46:33.477Z,1015.13
2016-08-23T04:47:33.502Z,1015.14
2016-08-23T04:48:33.527Z,1015.17
2016-08-23T04:49:33.553Z,1015.16
2016-08-23T04:50:33.582Z,1015.14
2016-08-23T04:51:33.601Z,1015.15
2016-08-23T04:52:33.626Z,1015.15
2016-08-23T04:53:33.650Z,1015.12
2016-08-23T04:54:33.676Z,1015.13
2016-08-23T04:55:33.700Z,1015.14
2016-08-23T04:56:33.726Z,1015.16
2016-08-23T04:57:33.751Z,1015.12
2016-08-23T04:58:33.777Z,1015.12
2016-08-23T04:59:33.801Z,1015.09
2016-08-23T05:00:33.827Z,1015.1
2016-08-23T05:01:33.850Z,1015.11
2016-08-23T05:02:33.875Z,1015.09
2016-08-23T05:03:33.901Z,1015.11
2016-08-23T05:04:33.926Z,1015.16
2016-08-23T05:05:33.951Z,1015.17
2016-08-23T05:06:33.974Z,1015.15
2016-08-23T05:07:34.000Z,1015.14
2016-08-23T05:08:34.025Z,1015.14
2016-08-23T05:09:34.049Z,1015.15
2016-08-23T05:10:34.074Z,1015.13
2016-08-23T05:11:34.100Z,1015.12
2016-08-23T05:12:34.124Z,1015.15
2016-08-23T05:13:34.148Z,1015.12
2016-08-23T05:14:34.175Z,1015.13
2016-08-23T05:15:34.198Z,1015.13
2016-08-23T05:16:34.224Z,1015.14
2016-08-23T05:17:34.248Z,1015.17
2016-08-23T05:18:34.274Z,1015.14
2016-08-23T05:19:34.300Z,1015.12
2016-08-23T05:20:34.325Z,1015.12
2016-08-23T05:21:34.348Z,1015.1
2016-08-23T05:22:34.373Z,1015.13
2016-08-23T05:23:34.398Z,1015.15
2016-08-23T05:24:34.423Z,1015.13
2016-08-23T05:25:34.447Z,1015.16
2016-08-23T05:26:34.472Z,1015.13
2016-08-23T05:27:34.498Z,1015.14
2016-08-23T05:28:34.521Z,1015.12
2016-08-23T05:29:34.595Z,1015.16
2016-08-23T05:30:34.573Z,1015.16
2016-08-23T05:31:34.597Z,1015.16
2016-08-23T05:32:34.619Z,1015.14
2016-08-23T05:33:34.644Z,1015.16
2016-08-23T05:34:34.669Z,1015.14
2016-08-23T05:35:34.694Z,1015.12
2016-08-23T05:36:34.720Z,1015.15
2016-08-23T05:37:34.743Z,1015.17
2016-08-23T05:38:34.768Z,1015.19
2016-08-23T05:39:34.793Z,1015.18
2016-08-23T05:40:34.818Z,1015.17
2016-08-23T05:41:34.844Z,1015.2
2016-08-23T05:42:34.869Z,1015.19
2016-08-23T05:43:34.892Z,1015.23
2016-08-23T05:44:34.917Z,1015.21
2016-08-23T05:45:34.942Z,1015.22
2016-08-23T05:46:34.966Z,1015.22
2016-08-23T05:47:34.990Z,1015.19
2016-08-23T05:48:35.022Z,1015.22
2016-08-23T05:49:35.040Z,1015.21
2016-08-23T05:50:35.064Z,1015.26
2016-08-23T05:51:35.090Z,1015.22
2016-08-23T05:52:35.115Z,1015.22
2016-08-23T05:53:35.140Z,1015.24
2016-08-23T05:54:35.164Z,1015.26
2016-08-23T05:55:35.189Z,1015.26
2016-08-23T05:56:35.214Z,1015.26
2016-08-23T05:57:35.238Z,1015.27
2016-08-23T05:58:35.264Z,1015.27
2016-08-23T05:59:35.289Z,1015.29
2016-08-23T06:00:35.313Z,1015.3
2016-08-23T06:01:35.338Z,1015.26
2016-08-23T06:02:35.363Z,1015.27
2016-08-23T06:03:35.393Z,1015.31
2016-08-23T06:04:35.411Z,1015.32
2016-08-23T06:05:35.436Z,1015.29
2016-08-23T06:06:35.462Z,1015.3
2016-08-23T06:07:35.486Z,1015.27
2016-08-23T06:08:35.512Z,1015.27
2016-08-23T06:09:35.535Z,1015.24
2016-08-23T06:10:35.559Z,1015.27
2016-08-23T06:11:35.584Z,1015.24
2016-08-23T06:12:35.608Z,1015.29
2016-08-23T06:13:35.634Z,1015.29
2016-08-23T06:14:35.658Z,1015.28
2016-08-23T06:15:35.685Z,1015.31
2016-08-23T06:16:35.706Z,1015.28
2016-08-23T06:17:35.733Z,1015.33
2016-08-23T06:18:35.758Z,1015.33
2016-08-23T06:19:35.782Z,1015.32
2016-08-23T06:20:35.808Z,1015.31
2016-08-23T06:21:35.831Z,1015.25
2016-08-23T06:22:35.857Z,1015.3
2016-08-23T06:23:36.081Z,1015.31
2016-08-23T06:24:35.905Z,1015.31
2016-08-23T06:25:35.929Z,1015.27
2016-08-23T06:26:35.954Z,1015.25
2016-08-23T06:27:35.977Z,1015.28
2016-08-23T06:28:36.004Z,1015.31
2016-08-23T06:29:36.029Z,1015.31
2016-08-23T06:30:36.059Z,1015.34
2016-08-23T06:31:36.077Z,1015.31
2016-08-23T06:32:36.101Z,1015.3
2016-08-23T06:33:36.126Z,1015.32
2016-08-23T06:34:36.152Z,1015.3
2016-08-23T06:35:36.175Z,1015.31
2016-08-23T06:36:36.206Z,1015.32
2016-08-23T06:37:36.226Z,1015.35
2016-08-23T06:38:36.258Z,1015.36
2016-08-23T06:39:36.275Z,1015.33
2016-08-23T06:40:36.301Z,1015.32
2016-08-23T06:41:36.325Z,1015.35
2016-08-23T06:42:36.349Z,1015.36
2016-08-23T06:43:36.375Z,1015.36
2016-08-23T06:44:36.400Z,1015.31
2016-08-23T06:45:36.424Z,1015.34
2016-08-23T06:46:36.448Z,1015.36
2016-08-23T06:47:36.475Z,1015.34
2016-08-23T06:48:36.497Z,1015.35
2016-08-23T06:49:36.524Z,1015.3
2016-08-23T06:50:36.548Z,1015.32
2016-08-23T06:51:36.573Z,1015.37
2016-08-23T06:52:36.597Z,1015.39
2016-08-23T06:53:36.623Z,1015.43
2016-08-23T06:54:36.647Z,1015.39
2016-08-23T06:55:36.674Z,1015.42
2016-08-23T06:56:36.696Z,1015.37
2016-08-23T06:57:36.722Z,1015.37
2016-08-23T06:58:36.746Z,1015.37
2016-08-23T06:59:36.771Z,1015.38
2016-08-23T07:00:36.797Z,1015.41
2016-08-23T07:01:36.821Z,1015.44
2016-08-23T07:02:36.847Z,1015.4
2016-08-23T07:03:36.870Z,1015.43
2016-08-23T07:04:36.897Z,1015.37
2016-08-23T07:05:36.922Z,1015.42
2016-08-23T07:06:36.945Z,1015.35
2016-08-23T07:07:36.983Z,1015.4
2016-08-23T07:08:36.998Z,1015.29
2016-08-23T07:09:37.020Z,1015.29
2016-08-23T07:10:37.045Z,1015.29
2016-08-23T07:11:37.071Z,1015.3
2016-08-23T07:12:37.097Z,1015.29
2016-08-23T07:13:37.121Z,1015.33
2016-08-23T07:14:37.166Z,1015.32
2016-08-23T07:15:37.169Z,1015.34
2016-08-23T07:16:37.197Z,1015.37
2016-08-23T07:17:37.220Z,1015.32
2016-08-23T07:18:37.366Z,1015.35
2016-08-23T07:19:37.370Z,1015.35
2016-08-23T07:20:37.562Z,1015.37
2016-08-23T07:21:37.410Z,1015.38
2016-08-23T07:22:37.410Z,1015.4
2016-08-23T07:23:37.419Z,1015.42
2016-08-23T07:24:37.429Z,1015.42
2016-08-23T07:25:37.435Z,1015.39
2016-08-23T07:26:37.446Z,1015.4
2016-08-23T07:27:37.590Z,1015.43
2016-08-23T07:28:37.589Z,1015.39
2016-08-23T07:29:37.623Z,1015.41
2016-08-23T07:30:37.647Z,1015.43
2016-08-23T07:31:37.646Z,1015.44
2016-08-23T07:32:37.681Z,1015.41
2016-08-23T07:33:37.688Z,1015.43
2016-08-23T07:34:37.699Z,1015.44
2016-08-23T07:35:37.704Z,1015.44
2016-08-23T07:36:37.705Z,1015.45
2016-08-23T07:37:37.725Z,1015.46
2016-08-23T07:38:37.751Z,1015.45
2016-08-23T07:39:37.776Z,1015.42
2016-08-23T07:40:37.800Z,1015.43
2016-08-23T07:41:37.828Z,1015.46
2016-08-23T07:42:37.851Z,1015.44
2016-08-23T07:43:37.876Z,1015.46
2016-08-23T07:44:37.903Z,1015.47
2016-08-23T07:45:37.928Z,1015.51
2016-08-23T07:46:37.953Z,1015.48
2016-08-23T07:47:37.978Z,1015.49
2016-08-23T07:48:38.018Z,1015.53
2016-08-23T07:49:38.030Z,1015.48
2016-08-23T07:50:38.055Z,1015.48
2016-08-23T07:51:38.084Z,1015.49
2016-08-23T07:52:38.106Z,1015.45
2016-08-23T07:53:38.132Z,1015.51
2016-08-23T07:54:38.157Z,1015.47
2016-08-23T07:55:38.182Z,1015.47
2016-08-23T07:56:38.209Z,1015.48
2016-08-23T07:57:38.246Z,1015.42
2016-08-23T07:58:38.258Z,1015.45
2016-08-23T07:59:38.285Z,1015.45
2016-08-23T08:00:38.311Z,1015.44
2016-08-23T08:01:38.336Z,1015.43
2016-08-23T08:02:38.364Z,1015.47
2016-08-23T08:03:38.388Z,1015.43
2016-08-23T08:04:38.415Z,1015.41
2016-08-23T08:05:38.439Z,1015.43
2016-08-23T08:06:38.466Z,1015.41
2016-08-23T08:07:38.492Z,1015.46
2016-08-23T08:08:38.519Z,1015.39
2016-08-23T08:09:38.542Z,1015.4
2016-08-23T08:10:38.569Z,1015.4
2016-08-23T08:11:38.595Z,1015.41
2016-08-23T08:12:38.620Z,1015.4
2016-08-23T08:13:38.646Z,1015.38
2016-08-23T08:14:38.672Z,1015.41
2016-08-23T08:15:38.700Z,1015.41
2016-08-23T08:16:38.725Z,1015.42
2016-08-23T08:17:38.750Z,1015.41
2016-08-23T08:18:38.777Z,1015.4
2016-08-23T08:19:38.803Z,1015.47
2016-08-23T08:20:38.828Z,1015.45
2016-08-23T08:21:38.855Z,1015.48
2016-08-23T08:22:38.882Z,1015.47
2016-08-23T08:23:38.906Z,1015.47
2016-08-23T08:24:38.934Z,1015.5
2016-08-23T08:25:38.960Z,1015.52
2016-08-23T08:26:38.987Z,1015.51
2016-08-23T08:27:39.012Z,1015.51
2016-08-23T08:28:39.039Z,1015.5
2016-08-23T08:29:39.066Z,1015.47
2016-08-23T08:30:39.110Z,1015.5
2016-08-23T08:31:39.118Z,1015.44
2016-08-23T08:32:39.145Z,1015.44
2016-08-23T08:33:39.175Z,1015.42
2016-08-23T08:34:39.197Z,1015.38
2016-08-23T08:35:39.224Z,1015.4
2016-08-23T08:36:39.250Z,1015.38
2016-08-23T08:37:39.277Z,1015.36
2016-08-23T08:38:39.301Z,1015.39
2016-08-23T08:39:39.330Z,1015.41
2016-08-23T08:40:39.357Z,1015.39
2016-08-23T08:41:39.385Z,1015.4
2016-08-23T08:42:40.015Z,1015.38
2016-08-23T08:43:39.435Z,1015.39
2016-08-23T08:44:39.464Z,1015.39
2016-08-23T08:45:39.489Z,1015.37
2016-08-23T08:46:39.516Z,1015.38
2016-08-23T08:47:39.544Z,1015.35
2016-08-23T08:48:39.570Z,1015.39
2016-08-23T08:49:39.597Z,1015.36
2016-08-23T08:50:39.623Z,1015.34
2016-08-23T08:51:39.651Z,1015.39
2016-08-23T08:52:39.678Z,1015.4
2016-08-23T08:53:39.704Z,1015.39
2016-08-23T08:54:39.731Z,1015.41
2016-08-23T08:55:39.759Z,1015.37
2016-08-23T08:56:39.785Z,1015.42
2016-08-23T08:57:39.812Z,1015.38
2016-08-23T08:58:39.848Z,1015.43
2016-08-23T08:59:39.867Z,1015.43
2016-08-23T09:00:39.894Z,1015.41
2016-08-23T09:01:39.958Z,1015.42
2016-08-23T09:02:39.947Z,1015.38
2016-08-23T09:03:39.976Z,1015.38
2016-08-23T09:04:40.003Z,1015.39
2016-08-23T09:05:40.031Z,1015.36
2016-08-23T09:06:40.058Z,1015.3
2016-08-23T09:07:40.084Z,1015.32
2016-08-23T09:08:40.112Z,1015.29
2016-08-23T09:09:40.141Z,1015.31
2016-08-23T09:10:40.168Z,1015.3
2016-08-23T09:11:40.196Z,1015.32
2016-08-23T09:12:40.224Z,1015.29
2016-08-23T09:13:40.250Z,1015.28
2016-08-23T09:14:40.278Z,1015.27
2016-08-23T09:15:40.306Z,1015.23
2016-08-23T09:16:40.333Z,1015.29
2016-08-23T09:17:40.361Z,1015.22
2016-08-23T09:18:40.389Z,1015.22
2016-08-23T09:19:40.416Z,1015.23
2016-08-23T09:20:40.443Z,1015.24
2016-08-23T09:21:40.473Z,1015.26
2016-08-23T09:22:40.500Z,1015.21
2016-08-23T09:23:40.528Z,1015.24
2016-08-23T09:24:40.799Z,1015.22
2016-08-23T09:25:40.582Z,1015.21
2016-08-23T09:26:40.664Z,1015.19
2016-08-23T09:27:40.639Z,1015.21
2016-08-23T09:28:40.667Z,1015.22
2016-08-23T09:29:40.694Z,1015.24
2016-08-23T09:30:40.722Z,1015.27
2016-08-23T09:31:40.752Z,1015.25
2016-08-23T09:32:40.780Z,1015.24
2016-08-23T09:33:40.807Z,1015.21
2016-08-23T09:34:40.838Z,1015.24
2016-08-23T09:35:40.865Z,1015.25
2016-08-23T09:36:40.891Z,1015.25
2016-08-23T09:37:40.919Z,1015.25
2016-08-23T09:38:40.953Z,1015.26
2016-08-23T09:39:40.977Z,1015.25
2016-08-23T09:40:41.005Z,1015.31
2016-08-23T09:41:41.034Z,1015.31
2016-08-23T09:42:41.061Z,1015.24
2016-08-23T09:43:41.090Z,1015.24
2016-08-23T09:44:41.120Z,1015.28
2016-08-23T09:45:41.148Z,1015.23
2016-08-23T09:46:41.177Z,1015.25
2016-08-23T09:47:41.203Z,1015.19
2016-08-23T09:48:41.233Z,1015.2
2016-08-23T09:49:41.262Z,1015.21
2016-08-23T09:50:41.291Z,1015.14
2016-08-23T09:51:41.318Z,1015.17
2016-08-23T09:52:41.364Z,1015.19
2016-08-23T09:53:41.379Z,1015.17
2016-08-23T09:54:41.405Z,1015.17
2016-08-23T09:55:41.432Z,1015.18
2016-08-23T09:56:41.464Z,1015.16
2016-08-23T09:57:41.493Z,1015.15
2016-08-23T09:58:41.521Z,1015.11
2016-08-23T09:59:41.549Z,1015.15
2016-08-23T10:00:41.579Z,1015.09
2016-08-23T10:01:41.608Z,1015.13
2016-08-23T10:02:41.637Z,1015.11
2016-08-23T10:03:41.666Z,1015.12
2016-08-23T10:04:41.695Z,1015.12
2016-08-23T10:05:41.723Z,1015.13
2016-08-23T10:06:41.755Z,1015.09
2016-08-23T10:07:41.781Z,1015.08
2016-08-23T10:08:41.811Z,1015.1
2016-08-23T10:09:41.839Z,1015.12
2016-08-23T10:10:41.870Z,1015.11
2016-08-23T10:11:41.900Z,1015.1
2016-08-23T10:12:41.930Z,1015.15
2016-08-23T10:13:41.958Z,1015.13
2016-08-23T10:14:41.987Z,1015.08
2016-08-23T10:15:42.017Z,1015.08
2016-08-23T10:16:42.047Z,1015.1
2016-08-23T10:17:42.075Z,1015.07
2016-08-23T10:18:42.105Z,1015.07
2016-08-23T10:19:42.135Z,1015.1
2016-08-23T10:20:42.165Z,1015.09
2016-08-23T10:21:42.195Z,1015.07
2016-08-23T10:22:42.224Z,1015.02
2016-08-23T10:23:42.254Z,1015.06
2016-08-23T10:24:42.285Z,1015.03
2016-08-23T10:25:42.313Z,1015.04
2016-08-23T10:26:42.343Z,1015.04
2016-08-23T10:27:42.373Z,1015.04
2016-08-23T10:28:42.403Z,1015.01
2016-08-23T10:29:42.433Z,1014.98
2016-08-23T10:30:42.665Z,1015.01
2016-08-23T10:31:42.494Z,1015
2016-08-23T10:32:42.566Z,1015.01
2016-08-23T10:33:42.553Z,1014.93
2016-08-23T10:34:42.583Z,1014.92
2016-08-23T10:35:42.615Z,1014.86
2016-08-23T10:36:42.643Z,1014.88
2016-08-23T10:37:42.674Z,1014.91
2016-08-23T10:38:42.708Z,1014.89
2016-08-23T10:39:42.735Z,1014.87
2016-08-23T10:40:42.767Z,1014.83
2016-08-23T10:41:42.797Z,1014.8
2016-08-23T10:42:42.827Z,1014.78
2016-08-23T10:43:42.857Z,1014.82
2016-08-23T10:44:42.889Z,1014.78
2016-08-23T10:45:42.919Z,1014.79
2016-08-23T10:46:42.950Z,1014.84
2016-08-23T10:47:42.981Z,1014.82
2016-08-23T10:48:43.013Z,1014.79
2016-08-23T10:49:43.039Z,1014.85
2016-08-23T10:50:43.069Z,1014.81
2016-08-23T10:51:43.101Z,1014.75
2016-08-23T10:52:43.133Z,1014.79
2016-08-23T10:53:43.164Z,1014.77
2016-08-23T10:54:43.196Z,1014.77
2016-08-23T10:55:43.428Z,1014.73
2016-08-23T10:56:43.259Z,1014.75
2016-08-23T10:57:43.288Z,1014.72
2016-08-23T10:58:43.318Z,1014.72
2016-08-23T10:59:43.351Z,1014.74
2016-08-23T11:00:43.381Z,1014.77
2016-08-23T11:01:43.413Z,1014.74
2016-08-23T11:02:43.445Z,1014.72
2016-08-23T11:03:43.481Z,1014.74
2016-08-23T11:04:43.511Z,1014.77
2016-08-23T11:05:43.538Z,1014.8
2016-08-23T11:06:43.571Z,1014.76
2016-08-23T11:07:43.602Z,1014.77
2016-08-23T11:08:43.693Z,1014.76
2016-08-23T11:09:43.664Z,1014.72
2016-08-23T11:10:43.696Z,1014.72
2016-08-23T11:11:43.726Z,1014.72
2016-08-23T11:12:43.758Z,1014.67
2016-08-23T11:13:43.791Z,1014.68
2016-08-23T11:14:43.827Z,1014.69
2016-08-23T11:15:43.854Z,1014.67
2016-08-23T11:16:43.885Z,1014.65
2016-08-23T11:17:43.917Z,1014.66
2016-08-23T11:18:43.950Z,1014.66
2016-08-23T11:19:43.980Z,1014.69
2016-08-23T11:20:44.012Z,1014.69
2016-08-23T11:21:44.045Z,1014.68
2016-08-23T11:22:44.077Z,1014.65
2016-08-23T11:23:44.109Z,1014.61
2016-08-23T11:24:44.142Z,1014.6
2016-08-23T11:25:44.175Z,1014.6
2016-08-23T11:26:44.206Z,1014.59
2016-08-23T11:27:44.238Z,1014.59
2016-08-23T11:28:44.271Z,1014.64
2016-08-23T11:29:44.303Z,1014.71
2016-08-23T11:30:44.334Z,1014.68
2016-08-23T11:31:44.368Z,1014.69
2016-08-23T11:32:44.401Z,1014.71
2016-08-23T11:33:44.431Z,1014.71
2016-08-23T11:34:44.464Z,1014.69
2016-08-23T11:35:44.498Z,1014.73
2016-08-23T11:36:44.529Z,1014.69
2016-08-23T11:37:44.564Z,1014.67
2016-08-23T11:38:44.596Z,1014.71
2016-08-23T11:39:44.628Z,1014.66
2016-08-23T11:40:44.663Z,1014.75
2016-08-23T11:41:44.694Z,1014.68
2016-08-23T11:42:44.726Z,1014.64
2016-08-23T11:43:44.761Z,1014.65
2016-08-23T11:44:44.791Z,1014.68
2016-08-23T11:45:44.824Z,1014.7
2016-08-23T11:46:44.859Z,1014.72
2016-08-23T11:47:44.891Z,1014.7
2016-08-23T11:48:44.923Z,1014.63
2016-08-23T11:49:44.959Z,1014.63
2016-08-23T11:50:44.990Z,1014.58
2016-08-23T11:51:45.034Z,1014.67
2016-08-23T11:52:45.056Z,1014.62
2016-08-23T11:53:45.091Z,1014.68
2016-08-23T11:54:45.123Z,1014.62
2016-08-23T11:55:45.155Z,1014.64
2016-08-23T11:56:45.190Z,1014.65
2016-08-23T11:57:45.222Z,1014.64
2016-08-23T11:58:45.257Z,1014.62
2016-08-23T11:59:45.289Z,1014.68
2016-08-23T12:00:45.323Z,1014.68
2016-08-23T12:01:45.357Z,1014.65
2016-08-23T12:02:45.392Z,1014.67
2016-08-23T12:03:45.424Z,1014.67
2016-08-23T12:04:45.458Z,1014.65
2016-08-23T12:05:45.492Z,1014.66
2016-08-23T12:06:45.525Z,1014.63
2016-08-23T12:07:45.559Z,1014.7
2016-08-23T12:08:45.593Z,1014.68
2016-08-23T12:09:45.786Z,1014.64
2016-08-23T12:10:45.659Z,1014.65